sensor_id;sensor_type;location;lat;lon;timestamp;temperature;humidity
23283;DHT22;11810;51.178;3.878;2023-08-21T00:01:17;18.30;99.90
23283;DHT22;11810;51.178;3.878;2023-08-21T00:03:42;18.30;99.90
23283;DHT22;11810;51.178;3.878;2023-08-21T00:06:08;18.30;99.90
23283;DHT22;11810;51.178;3.878;2023-08-21T00:08:34;18.30;99.90
23283;DHT22;11810;51.178;3.878;2023-08-21T00:11:00;18.40;99.90
23283;DHT22;11810;51.178;3.878;2023-08-21T00:13:26;18.20;99.90
23283;DHT22;11810;51.178;3.878;2023-08-21T00:15:52;18.20;99.90
23283;DHT22;11810;51.178;3.878;2023-08-21T00:18:20;18.20;99.90
23283;DHT22;11810;51.178;3.878;2023-08-21T00:20:45;18.20;99.90
23283;DHT22;11810;51.178;3.878;2023-08-21T00:23:11;18.20;99.90
23283;DHT22;11810;51.178;3.878;2023-08-21T00:25:37;18.20;99.90
23283;DHT22;11810;51.178;3.878;2023-08-21T00:28:03;18.10;99.90
23283;DHT22;11810;51.178;3.878;2023-08-21T00:30:29;18.10;99.90
23283;DHT22;11810;51.178;3.878;2023-08-21T00:32:55;18.10;99.90
23283;DHT22;11810;51.178;3.878;2023-08-21T00:35:21;18.10;99.90
23283;DHT22;11810;51.178;3.878;2023-08-21T00:37:47;18.00;99.90
23283;DHT22;11810;51.178;3.878;2023-08-21T00:40:13;18.00;99.90
23283;DHT22;11810;51.178;3.878;2023-08-21T00:42:39;17.90;99.90
23283;DHT22;11810;51.178;3.878;2023-08-21T00:45:06;17.90;99.90
23283;DHT22;11810;51.178;3.878;2023-08-21T00:47:35;17.90;99.90
23283;DHT22;11810;51.178;3.878;2023-08-21T00:50:01;18.10;99.90
23283;DHT22;11810;51.178;3.878;2023-08-21T00:52:27;18.40;99.90
23283;DHT22;11810;51.178;3.878;2023-08-21T00:54:54;18.70;99.90
23283;DHT22;11810;51.178;3.878;2023-08-21T00:57:21;18.60;99.90
23283;DHT22;11810;51.178;3.878;2023-08-21T00:59:48;18.70;99.90
23283;DHT22;11810;51.178;3.878;2023-08-21T01:02:14;18.70;99.90
23283;DHT22;11810;51.178;3.878;2023-08-21T01:04:40;18.80;99.90
23283;DHT22;11810;51.178;3.878;2023-08-21T01:07:06;18.80;99.90
23283;DHT22;11810;51.178;3.878;2023-08-21T01:10:16;18.80;99.90
23283;DHT22;11810;51.178;3.878;2023-08-21T01:12:50;18.80;99.90
23283;DHT22;11810;51.178;3.878;2023-08-21T01:15:20;18.90;99.90
23283;DHT22;11810;51.178;3.878;2023-08-21T01:17:46;19.00;99.90
23283;DHT22;11810;51.178;3.878;2023-08-21T01:20:13;19.00;99.90
23283;DHT22;11810;51.178;3.878;2023-08-21T01:22:41;19.00;99.90
23283;DHT22;11810;51.178;3.878;2023-08-21T01:25:12;18.90;99.90
23283;DHT22;11810;51.178;3.878;2023-08-21T01:27:41;18.80;99.90
23283;DHT22;11810;51.178;3.878;2023-08-21T01:30:08;18.70;99.90
23283;DHT22;11810;51.178;3.878;2023-08-21T01:32:59;18.80;99.90
23283;DHT22;11810;51.178;3.878;2023-08-21T01:35:27;18.80;99.90
23283;DHT22;11810;51.178;3.878;2023-08-21T01:37:53;18.90;99.90
23283;DHT22;11810;51.178;3.878;2023-08-21T01:40:24;18.80;99.90
23283;DHT22;11810;51.178;3.878;2023-08-21T01:42:50;18.90;99.90
23283;DHT22;11810;51.178;3.878;2023-08-21T01:45:17;18.80;99.90
23283;DHT22;11810;51.178;3.878;2023-08-21T01:47:43;18.70;99.90
23283;DHT22;11810;51.178;3.878;2023-08-21T01:50:09;18.80;99.90
23283;DHT22;11810;51.178;3.878;2023-08-21T01:52:35;18.70;99.90
23283;DHT22;11810;51.178;3.878;2023-08-21T01:55:01;18.70;99.90
23283;DHT22;11810;51.178;3.878;2023-08-21T01:57:27;18.60;99.90
23283;DHT22;11810;51.178;3.878;2023-08-21T01:59:53;18.60;99.90
23283;DHT22;11810;51.178;3.878;2023-08-21T02:02:19;18.60;99.90
23283;DHT22;11810;51.178;3.878;2023-08-21T02:04:45;18.50;99.90
23283;DHT22;11810;51.178;3.878;2023-08-21T02:07:11;18.40;99.90
23283;DHT22;11810;51.178;3.878;2023-08-21T02:09:37;18.30;99.90
23283;DHT22;11810;51.178;3.878;2023-08-21T02:12:03;18.30;99.90
23283;DHT22;11810;51.178;3.878;2023-08-21T02:14:29;18.10;99.90
23283;DHT22;11810;51.178;3.878;2023-08-21T02:16:55;18.00;99.90
23283;DHT22;11810;51.178;3.878;2023-08-21T02:19:21;18.00;99.90
23283;DHT22;11810;51.178;3.878;2023-08-21T02:21:47;17.90;99.90
23283;DHT22;11810;51.178;3.878;2023-08-21T02:24:13;18.10;99.90
23283;DHT22;11810;51.178;3.878;2023-08-21T02:26:38;18.00;99.90
23283;DHT22;11810;51.178;3.878;2023-08-21T02:29:04;18.00;99.90
23283;DHT22;11810;51.178;3.878;2023-08-21T02:31:30;18.00;99.90
23283;DHT22;11810;51.178;3.878;2023-08-21T02:33:56;18.00;99.90
23283;DHT22;11810;51.178;3.878;2023-08-21T02:36:22;18.10;99.90
23283;DHT22;11810;51.178;3.878;2023-08-21T02:38:49;18.20;99.90
23283;DHT22;11810;51.178;3.878;2023-08-21T02:41:15;18.30;99.90
23283;DHT22;11810;51.178;3.878;2023-08-21T02:43:43;18.30;99.90
23283;DHT22;11810;51.178;3.878;2023-08-21T02:46:09;18.40;99.90
23283;DHT22;11810;51.178;3.878;2023-08-21T02:48:35;18.50;99.90
23283;DHT22;11810;51.178;3.878;2023-08-21T02:51:01;18.50;99.90
23283;DHT22;11810;51.178;3.878;2023-08-21T02:53:28;18.40;99.90
23283;DHT22;11810;51.178;3.878;2023-08-21T02:55:54;18.50;99.90
23283;DHT22;11810;51.178;3.878;2023-08-21T02:58:20;18.50;99.90
23283;DHT22;11810;51.178;3.878;2023-08-21T03:00:46;18.50;99.90
23283;DHT22;11810;51.178;3.878;2023-08-21T03:03:12;18.40;99.90
23283;DHT22;11810;51.178;3.878;2023-08-21T03:05:38;18.40;99.90
23283;DHT22;11810;51.178;3.878;2023-08-21T03:08:04;18.40;99.90
23283;DHT22;11810;51.178;3.878;2023-08-21T03:10:30;18.40;99.90
23283;DHT22;11810;51.178;3.878;2023-08-21T03:13:00;18.50;99.90
23283;DHT22;11810;51.178;3.878;2023-08-21T03:15:26;18.50;99.90
23283;DHT22;11810;51.178;3.878;2023-08-21T03:17:51;18.40;99.90
23283;DHT22;11810;51.178;3.878;2023-08-21T03:20:17;18.50;99.90
23283;DHT22;11810;51.178;3.878;2023-08-21T03:22:43;18.30;99.90
23283;DHT22;11810;51.178;3.878;2023-08-21T03:25:10;18.10;99.90
23283;DHT22;11810;51.178;3.878;2023-08-21T03:27:36;18.00;99.90
23283;DHT22;11810;51.178;3.878;2023-08-21T03:30:06;17.90;99.90
23283;DHT22;11810;51.178;3.878;2023-08-21T03:32:33;17.70;99.90
23283;DHT22;11810;51.178;3.878;2023-08-21T03:34:59;17.70;99.90
23283;DHT22;11810;51.178;3.878;2023-08-21T03:37:25;17.60;99.90
23283;DHT22;11810;51.178;3.878;2023-08-21T03:39:51;17.60;99.90
23283;DHT22;11810;51.178;3.878;2023-08-21T03:42:17;17.60;99.90
23283;DHT22;11810;51.178;3.878;2023-08-21T03:44:43;17.50;99.90
23283;DHT22;11810;51.178;3.878;2023-08-21T03:47:09;17.50;99.90
23283;DHT22;11810;51.178;3.878;2023-08-21T03:49:36;17.50;99.90
23283;DHT22;11810;51.178;3.878;2023-08-21T03:52:02;17.50;99.90
23283;DHT22;11810;51.178;3.878;2023-08-21T03:54:28;17.50;99.90
23283;DHT22;11810;51.178;3.878;2023-08-21T03:56:54;17.50;99.90
23283;DHT22;11810;51.178;3.878;2023-08-21T03:59:20;17.60;99.90
23283;DHT22;11810;51.178;3.878;2023-08-21T04:01:46;17.50;99.90
23283;DHT22;11810;51.178;3.878;2023-08-21T04:04:11;17.50;99.90
23283;DHT22;11810;51.178;3.878;2023-08-21T04:06:37;17.50;99.90
23283;DHT22;11810;51.178;3.878;2023-08-21T04:09:03;17.50;99.90
23283;DHT22;11810;51.178;3.878;2023-08-21T04:11:32;17.50;99.90
23283;DHT22;11810;51.178;3.878;2023-08-21T04:13:58;17.50;99.90
23283;DHT22;11810;51.178;3.878;2023-08-21T04:16:24;17.50;99.90
23283;DHT22;11810;51.178;3.878;2023-08-21T04:18:50;17.40;99.90
23283;DHT22;11810;51.178;3.878;2023-08-21T04:21:16;17.40;99.90
23283;DHT22;11810;51.178;3.878;2023-08-21T04:23:44;17.30;99.90
23283;DHT22;11810;51.178;3.878;2023-08-21T04:26:11;17.40;99.90
23283;DHT22;11810;51.178;3.878;2023-08-21T04:28:37;17.30;99.90
23283;DHT22;11810;51.178;3.878;2023-08-21T04:31:06;17.20;99.90
23283;DHT22;11810;51.178;3.878;2023-08-21T04:33:32;17.20;99.90
23283;DHT22;11810;51.178;3.878;2023-08-21T04:35:59;17.10;99.90
23283;DHT22;11810;51.178;3.878;2023-08-21T04:38:25;17.00;99.90
23283;DHT22;11810;51.178;3.878;2023-08-21T04:40:51;16.90;99.90
23283;DHT22;11810;51.178;3.878;2023-08-21T04:43:17;16.80;99.90
23283;DHT22;11810;51.178;3.878;2023-08-21T04:45:50;16.80;99.90
23283;DHT22;11810;51.178;3.878;2023-08-21T04:48:18;16.70;99.90
23283;DHT22;11810;51.178;3.878;2023-08-21T04:50:45;16.70;99.90
23283;DHT22;11810;51.178;3.878;2023-08-21T04:53:12;16.60;99.90
23283;DHT22;11810;51.178;3.878;2023-08-21T04:55:39;16.50;99.90
23283;DHT22;11810;51.178;3.878;2023-08-21T04:58:06;16.50;99.90
23283;DHT22;11810;51.178;3.878;2023-08-21T05:00:33;16.40;99.90
23283;DHT22;11810;51.178;3.878;2023-08-21T05:02:59;16.40;99.90
23283;DHT22;11810;51.178;3.878;2023-08-21T05:05:25;16.50;99.90
23283;DHT22;11810;51.178;3.878;2023-08-21T05:07:52;16.50;99.90
23283;DHT22;11810;51.178;3.878;2023-08-21T05:10:19;16.40;99.90
23283;DHT22;11810;51.178;3.878;2023-08-21T05:12:46;16.30;99.90
23283;DHT22;11810;51.178;3.878;2023-08-21T05:15:12;16.30;99.90
23283;DHT22;11810;51.178;3.878;2023-08-21T05:17:38;16.30;99.90
23283;DHT22;11810;51.178;3.878;2023-08-21T05:20:04;16.40;99.90
23283;DHT22;11810;51.178;3.878;2023-08-21T05:22:30;16.70;99.90
23283;DHT22;11810;51.178;3.878;2023-08-21T05:24:56;16.90;99.90
23283;DHT22;11810;51.178;3.878;2023-08-21T05:27:22;17.30;99.90
23283;DHT22;11810;51.178;3.878;2023-08-21T05:29:48;17.80;99.90
23283;DHT22;11810;51.178;3.878;2023-08-21T05:32:17;18.20;99.90
23283;DHT22;11810;51.178;3.878;2023-08-21T05:34:42;18.80;99.90
23283;DHT22;11810;51.178;3.878;2023-08-21T05:37:09;19.10;99.90
23283;DHT22;11810;51.178;3.878;2023-08-21T05:39:34;19.70;99.90
23283;DHT22;11810;51.178;3.878;2023-08-21T05:42:00;20.10;99.90
23283;DHT22;11810;51.178;3.878;2023-08-21T05:44:26;20.50;99.90
23283;DHT22;11810;51.178;3.878;2023-08-21T05:46:53;20.60;99.90
23283;DHT22;11810;51.178;3.878;2023-08-21T05:49:19;20.30;99.90
23283;DHT22;11810;51.178;3.878;2023-08-21T05:51:45;20.50;99.90
23283;DHT22;11810;51.178;3.878;2023-08-21T05:54:11;21.10;99.90
23283;DHT22;11810;51.178;3.878;2023-08-21T05:56:37;21.50;99.90
23283;DHT22;11810;51.178;3.878;2023-08-21T05:59:02;21.80;99.90
23283;DHT22;11810;51.178;3.878;2023-08-21T06:01:28;22.30;99.90
23283;DHT22;11810;51.178;3.878;2023-08-21T06:03:54;23.00;99.90
23283;DHT22;11810;51.178;3.878;2023-08-21T06:06:20;23.60;99.90
23283;DHT22;11810;51.178;3.878;2023-08-21T06:08:46;24.00;99.90
23283;DHT22;11810;51.178;3.878;2023-08-21T06:11:12;24.10;99.90
23283;DHT22;11810;51.178;3.878;2023-08-21T06:13:40;24.30;99.90
23283;DHT22;11810;51.178;3.878;2023-08-21T06:16:06;24.70;99.90
23283;DHT22;11810;51.178;3.878;2023-08-21T06:18:32;24.60;99.90
23283;DHT22;11810;51.178;3.878;2023-08-21T06:20:57;24.40;99.90
23283;DHT22;11810;51.178;3.878;2023-08-21T06:23:23;23.50;99.90
23283;DHT22;11810;51.178;3.878;2023-08-21T06:25:49;23.50;99.90
23283;DHT22;11810;51.178;3.878;2023-08-21T06:28:15;24.20;99.90
23283;DHT22;11810;51.178;3.878;2023-08-21T06:30:42;25.10;99.90
23283;DHT22;11810;51.178;3.878;2023-08-21T06:33:08;25.70;99.90
23283;DHT22;11810;51.178;3.878;2023-08-21T06:35:37;25.70;99.90
23283;DHT22;11810;51.178;3.878;2023-08-21T06:38:03;25.40;99.90
23283;DHT22;11810;51.178;3.878;2023-08-21T06:40:29;24.50;99.90
23283;DHT22;11810;51.178;3.878;2023-08-21T06:42:55;23.80;99.90
23283;DHT22;11810;51.178;3.878;2023-08-21T06:45:22;23.30;99.90
23283;DHT22;11810;51.178;3.878;2023-08-21T06:47:48;23.20;99.90
23283;DHT22;11810;51.178;3.878;2023-08-21T06:50:16;23.50;99.90
23283;DHT22;11810;51.178;3.878;2023-08-21T06:52:42;24.40;99.90
23283;DHT22;11810;51.178;3.878;2023-08-21T06:55:08;25.10;99.90
23283;DHT22;11810;51.178;3.878;2023-08-21T06:57:34;25.70;99.90
23283;DHT22;11810;51.178;3.878;2023-08-21T07:00:00;25.80;99.90
23283;DHT22;11810;51.178;3.878;2023-08-21T07:02:26;26.50;99.90
23283;DHT22;11810;51.178;3.878;2023-08-21T07:04:52;26.30;99.90
23283;DHT22;11810;51.178;3.878;2023-08-21T07:07:17;26.30;99.90
23283;DHT22;11810;51.178;3.878;2023-08-21T07:09:43;26.50;99.90
23283;DHT22;11810;51.178;3.878;2023-08-21T07:12:09;26.50;99.90
23283;DHT22;11810;51.178;3.878;2023-08-21T07:14:35;27.00;99.90
23283;DHT22;11810;51.178;3.878;2023-08-21T07:17:01;27.00;99.90
23283;DHT22;11810;51.178;3.878;2023-08-21T07:19:27;26.90;99.90
23283;DHT22;11810;51.178;3.878;2023-08-21T07:21:53;26.80;99.90
23283;DHT22;11810;51.178;3.878;2023-08-21T07:24:19;26.60;99.90
23283;DHT22;11810;51.178;3.878;2023-08-21T07:26:45;26.70;99.90
23283;DHT22;11810;51.178;3.878;2023-08-21T07:29:11;26.90;99.90
23283;DHT22;11810;51.178;3.878;2023-08-21T07:31:37;27.50;99.90
23283;DHT22;11810;51.178;3.878;2023-08-21T07:34:03;27.90;99.90
23283;DHT22;11810;51.178;3.878;2023-08-21T07:36:28;28.40;99.90
23283;DHT22;11810;51.178;3.878;2023-08-21T07:38:54;28.20;99.90
23283;DHT22;11810;51.178;3.878;2023-08-21T07:41:20;28.50;99.90
23283;DHT22;11810;51.178;3.878;2023-08-21T07:43:46;28.30;99.90
23283;DHT22;11810;51.178;3.878;2023-08-21T07:46:13;28.00;99.90
23283;DHT22;11810;51.178;3.878;2023-08-21T07:48:43;27.80;99.90
23283;DHT22;11810;51.178;3.878;2023-08-21T07:51:09;28.00;99.90
23283;DHT22;11810;51.178;3.878;2023-08-21T07:53:35;28.60;99.90
23283;DHT22;11810;51.178;3.878;2023-08-21T07:56:04;29.60;99.90
23283;DHT22;11810;51.178;3.878;2023-08-21T07:58:31;30.30;99.90
23283;DHT22;11810;51.178;3.878;2023-08-21T08:00:58;31.50;99.90
23283;DHT22;11810;51.178;3.878;2023-08-21T08:03:24;31.80;99.90
23283;DHT22;11810;51.178;3.878;2023-08-21T08:05:50;32.30;99.90
23283;DHT22;11810;51.178;3.878;2023-08-21T08:08:19;32.80;99.90
23283;DHT22;11810;51.178;3.878;2023-08-21T08:10:45;32.90;99.90
23283;DHT22;11810;51.178;3.878;2023-08-21T08:13:11;33.50;99.90
23283;DHT22;11810;51.178;3.878;2023-08-21T08:15:38;34.00;99.90
23283;DHT22;11810;51.178;3.878;2023-08-21T08:18:04;34.10;99.90
23283;DHT22;11810;51.178;3.878;2023-08-21T08:20:33;33.50;99.90
23283;DHT22;11810;51.178;3.878;2023-08-21T08:22:58;33.40;99.90
23283;DHT22;11810;51.178;3.878;2023-08-21T08:25:24;33.30;99.90
23283;DHT22;11810;51.178;3.878;2023-08-21T08:27:51;33.00;99.90
23283;DHT22;11810;51.178;3.878;2023-08-21T08:30:17;33.10;99.90
23283;DHT22;11810;51.178;3.878;2023-08-21T08:32:43;33.70;99.90
23283;DHT22;11810;51.178;3.878;2023-08-21T08:35:13;33.90;99.90
23283;DHT22;11810;51.178;3.878;2023-08-21T08:37:42;34.70;99.90
23283;DHT22;11810;51.178;3.878;2023-08-21T08:40:11;34.90;99.90
23283;DHT22;11810;51.178;3.878;2023-08-21T08:42:38;34.60;99.90
23283;DHT22;11810;51.178;3.878;2023-08-21T08:45:05;35.10;99.90
23283;DHT22;11810;51.178;3.878;2023-08-21T08:47:32;35.80;99.90
23283;DHT22;11810;51.178;3.878;2023-08-21T08:50:07;35.50;99.90
23283;DHT22;11810;51.178;3.878;2023-08-21T08:52:38;35.30;99.90
23283;DHT22;11810;51.178;3.878;2023-08-21T08:55:05;35.40;99.90
23283;DHT22;11810;51.178;3.878;2023-08-21T08:57:35;35.50;99.90
23283;DHT22;11810;51.178;3.878;2023-08-21T09:00:04;35.70;99.90
23283;DHT22;11810;51.178;3.878;2023-08-21T09:02:30;35.70;99.90
23283;DHT22;11810;51.178;3.878;2023-08-21T09:04:56;35.50;99.90
23283;DHT22;11810;51.178;3.878;2023-08-21T09:07:22;34.80;99.90
23283;DHT22;11810;51.178;3.878;2023-08-21T09:09:49;34.40;99.90
23283;DHT22;11810;51.178;3.878;2023-08-21T09:12:18;34.40;99.90
23283;DHT22;11810;51.178;3.878;2023-08-21T09:14:45;34.40;99.90
23283;DHT22;11810;51.178;3.878;2023-08-21T09:17:11;34.90;99.90
23283;DHT22;11810;51.178;3.878;2023-08-21T09:19:38;35.30;99.90
23283;DHT22;11810;51.178;3.878;2023-08-21T09:22:12;35.50;99.90
23283;DHT22;11810;51.178;3.878;2023-08-21T09:24:39;36.10;99.90
23283;DHT22;11810;51.178;3.878;2023-08-21T09:27:13;36.40;99.90
23283;DHT22;11810;51.178;3.878;2023-08-21T09:29:40;35.70;99.90
23283;DHT22;11810;51.178;3.878;2023-08-21T09:32:06;35.40;99.90
23283;DHT22;11810;51.178;3.878;2023-08-21T09:34:36;35.10;99.90
23283;DHT22;11810;51.178;3.878;2023-08-21T09:37:06;35.70;99.90
23283;DHT22;11810;51.178;3.878;2023-08-21T09:39:34;35.70;99.90
23283;DHT22;11810;51.178;3.878;2023-08-21T09:42:02;35.90;99.90
23283;DHT22;11810;51.178;3.878;2023-08-21T09:44:35;36.00;99.90
23283;DHT22;11810;51.178;3.878;2023-08-21T09:47:01;36.60;99.90
23283;DHT22;11810;51.178;3.878;2023-08-21T09:49:27;36.20;99.90
23283;DHT22;11810;51.178;3.878;2023-08-21T09:51:54;36.90;99.90
23283;DHT22;11810;51.178;3.878;2023-08-21T09:54:21;36.20;99.90
23283;DHT22;11810;51.178;3.878;2023-08-21T09:56:48;34.20;99.90
23283;DHT22;11810;51.178;3.878;2023-08-21T09:59:15;32.70;99.90
23283;DHT22;11810;51.178;3.878;2023-08-21T10:01:42;32.10;99.90
23283;DHT22;11810;51.178;3.878;2023-08-21T10:04:10;33.20;99.90
23283;DHT22;11810;51.178;3.878;2023-08-21T10:06:38;33.00;99.90
23283;DHT22;11810;51.178;3.878;2023-08-21T10:09:04;33.20;99.90
23283;DHT22;11810;51.178;3.878;2023-08-21T10:11:30;32.90;99.90
23283;DHT22;11810;51.178;3.878;2023-08-21T10:13:57;33.30;99.90
23283;DHT22;11810;51.178;3.878;2023-08-21T10:16:23;32.90;99.90
23283;DHT22;11810;51.178;3.878;2023-08-21T10:18:49;31.50;99.90
23283;DHT22;11810;51.178;3.878;2023-08-21T10:21:20;30.90;99.90
23283;DHT22;11810;51.178;3.878;2023-08-21T10:23:48;31.80;99.90
23283;DHT22;11810;51.178;3.878;2023-08-21T10:26:14;32.70;99.90
23283;DHT22;11810;51.178;3.878;2023-08-21T10:31:28;34.10;99.90
23283;DHT22;11810;51.178;3.878;2023-08-21T10:33:54;34.60;99.90
23283;DHT22;11810;51.178;3.878;2023-08-21T10:39:21;34.90;99.90
23283;DHT22;11810;51.178;3.878;2023-08-21T10:41:58;36.00;99.90
23283;DHT22;11810;51.178;3.878;2023-08-21T10:44:35;37.30;99.90
23283;DHT22;11810;51.178;3.878;2023-08-21T10:47:31;37.50;99.90
23283;DHT22;11810;51.178;3.878;2023-08-21T10:50:02;38.50;99.90
23283;DHT22;11810;51.178;3.878;2023-08-21T10:52:38;39.20;97.20
23283;DHT22;11810;51.178;3.878;2023-08-21T10:55:05;39.50;95.30
23283;DHT22;11810;51.178;3.878;2023-08-21T10:57:32;39.60;92.90
23283;DHT22;11810;51.178;3.878;2023-08-21T11:00:05;40.00;92.90
23283;DHT22;11810;51.178;3.878;2023-08-21T11:02:35;40.20;91.00
23283;DHT22;11810;51.178;3.878;2023-08-21T11:05:02;40.80;90.00
23283;DHT22;11810;51.178;3.878;2023-08-21T11:07:29;41.60;86.40
23283;DHT22;11810;51.178;3.878;2023-08-21T11:09:56;40.10;86.00
23283;DHT22;11810;51.178;3.878;2023-08-21T11:12:23;39.50;88.80
23283;DHT22;11810;51.178;3.878;2023-08-21T11:14:50;39.00;84.40
23283;DHT22;11810;51.178;3.878;2023-08-21T11:17:16;38.70;86.30
23283;DHT22;11810;51.178;3.878;2023-08-21T11:19:44;38.70;90.10
23283;DHT22;11810;51.178;3.878;2023-08-21T11:22:11;38.60;89.60
23283;DHT22;11810;51.178;3.878;2023-08-21T11:27:10;38.30;91.20
23283;DHT22;11810;51.178;3.878;2023-08-21T11:29:49;37.80;91.00
23283;DHT22;11810;51.178;3.878;2023-08-21T11:32:17;35.90;91.80
23283;DHT22;11810;51.178;3.878;2023-08-21T11:34:48;34.90;93.80
23283;DHT22;11810;51.178;3.878;2023-08-21T11:37:17;34.10;96.40
23283;DHT22;11810;51.178;3.878;2023-08-21T11:39:51;33.70;98.00
23283;DHT22;11810;51.178;3.878;2023-08-21T11:42:19;33.60;99.90
23283;DHT22;11810;51.178;3.878;2023-08-21T11:44:52;34.50;99.90
23283;DHT22;11810;51.178;3.878;2023-08-21T11:47:21;34.40;99.90
23283;DHT22;11810;51.178;3.878;2023-08-21T11:49:48;34.00;99.90
23283;DHT22;11810;51.178;3.878;2023-08-21T11:52:19;34.20;99.90
23283;DHT22;11810;51.178;3.878;2023-08-21T11:54:49;33.30;99.90
23283;DHT22;11810;51.178;3.878;2023-08-21T11:57:15;33.20;99.90
23283;DHT22;11810;51.178;3.878;2023-08-21T11:59:41;32.70;99.90
23283;DHT22;11810;51.178;3.878;2023-08-21T12:02:14;33.40;99.90
23283;DHT22;11810;51.178;3.878;2023-08-21T12:04:41;34.40;99.90
23283;DHT22;11810;51.178;3.878;2023-08-21T12:07:07;34.50;99.90
23283;DHT22;11810;51.178;3.878;2023-08-21T12:09:33;34.70;99.90
23283;DHT22;11810;51.178;3.878;2023-08-21T12:11:59;34.10;99.70
23283;DHT22;11810;51.178;3.878;2023-08-21T12:14:27;34.30;99.90
23283;DHT22;11810;51.178;3.878;2023-08-21T12:16:53;35.40;99.90
23283;DHT22;11810;51.178;3.878;2023-08-21T12:19:20;36.00;99.90
23283;DHT22;11810;51.178;3.878;2023-08-21T12:21:47;37.00;98.60
23283;DHT22;11810;51.178;3.878;2023-08-21T12:24:13;37.20;97.50
23283;DHT22;11810;51.178;3.878;2023-08-21T12:26:39;37.80;97.40
23283;DHT22;11810;51.178;3.878;2023-08-21T12:29:05;38.50;94.40
23283;DHT22;11810;51.178;3.878;2023-08-21T12:31:31;38.20;94.60
23283;DHT22;11810;51.178;3.878;2023-08-21T12:33:57;38.00;93.90
23283;DHT22;11810;51.178;3.878;2023-08-21T12:36:23;37.50;93.40
23283;DHT22;11810;51.178;3.878;2023-08-21T12:38:49;37.60;93.60
23283;DHT22;11810;51.178;3.878;2023-08-21T12:41:15;37.90;93.60
23283;DHT22;11810;51.178;3.878;2023-08-21T12:43:40;37.60;93.70
23283;DHT22;11810;51.178;3.878;2023-08-21T12:46:06;37.50;92.60
23283;DHT22;11810;51.178;3.878;2023-08-21T12:48:32;37.50;93.70
23283;DHT22;11810;51.178;3.878;2023-08-21T12:50:58;37.30;94.20
23283;DHT22;11810;51.178;3.878;2023-08-21T12:53:24;37.50;94.90
23283;DHT22;11810;51.178;3.878;2023-08-21T12:55:50;38.00;93.30
23283;DHT22;11810;51.178;3.878;2023-08-21T12:58:16;37.30;94.20
23283;DHT22;11810;51.178;3.878;2023-08-21T13:00:43;37.40;94.10
23283;DHT22;11810;51.178;3.878;2023-08-21T13:03:09;36.40;95.10
23283;DHT22;11810;51.178;3.878;2023-08-21T13:05:35;35.30;97.10
23283;DHT22;11810;51.178;3.878;2023-08-21T13:08:01;34.20;98.80
23283;DHT22;11810;51.178;3.878;2023-08-21T13:10:28;33.70;99.90
23283;DHT22;11810;51.178;3.878;2023-08-21T13:12:53;34.00;99.90
23283;DHT22;11810;51.178;3.878;2023-08-21T13:15:19;34.30;99.90
23283;DHT22;11810;51.178;3.878;2023-08-21T13:17:45;34.10;99.90
23283;DHT22;11810;51.178;3.878;2023-08-21T13:20:11;33.00;99.90
23283;DHT22;11810;51.178;3.878;2023-08-21T13:22:55;32.30;99.90
23283;DHT22;11810;51.178;3.878;2023-08-21T13:25:23;32.50;99.90
23283;DHT22;11810;51.178;3.878;2023-08-21T13:27:52;32.50;99.90
23283;DHT22;11810;51.178;3.878;2023-08-21T13:30:18;33.00;99.90
23283;DHT22;11810;51.178;3.878;2023-08-21T13:32:46;33.70;99.90
23283;DHT22;11810;51.178;3.878;2023-08-21T13:35:12;33.50;99.90
23283;DHT22;11810;51.178;3.878;2023-08-21T13:37:39;33.30;99.90
23283;DHT22;11810;51.178;3.878;2023-08-21T13:40:06;32.20;99.90
23283;DHT22;11810;51.178;3.878;2023-08-21T13:42:42;31.30;99.90
23283;DHT22;11810;51.178;3.878;2023-08-21T13:45:12;30.50;99.90
23283;DHT22;11810;51.178;3.878;2023-08-21T13:47:39;30.60;99.90
23283;DHT22;11810;51.178;3.878;2023-08-21T13:50:07;30.90;99.90
23283;DHT22;11810;51.178;3.878;2023-08-21T13:52:33;31.10;99.90
23283;DHT22;11810;51.178;3.878;2023-08-21T13:55:00;30.90;99.90
23283;DHT22;11810;51.178;3.878;2023-08-21T13:57:27;30.90;99.90
23283;DHT22;11810;51.178;3.878;2023-08-21T13:59:53;30.70;99.90
23283;DHT22;11810;51.178;3.878;2023-08-21T14:02:19;30.70;99.90
23283;DHT22;11810;51.178;3.878;2023-08-21T14:04:46;30.50;99.90
23283;DHT22;11810;51.178;3.878;2023-08-21T14:07:12;30.50;99.90
23283;DHT22;11810;51.178;3.878;2023-08-21T14:09:39;30.70;99.90
23283;DHT22;11810;51.178;3.878;2023-08-21T14:12:05;30.80;99.90
23283;DHT22;11810;51.178;3.878;2023-08-21T14:14:33;30.20;99.90
23283;DHT22;11810;51.178;3.878;2023-08-21T14:16:59;29.80;99.90
23283;DHT22;11810;51.178;3.878;2023-08-21T14:19:25;30.00;99.90
23283;DHT22;11810;51.178;3.878;2023-08-21T14:21:51;29.90;99.90
23283;DHT22;11810;51.178;3.878;2023-08-21T14:24:17;29.70;99.90
23283;DHT22;11810;51.178;3.878;2023-08-21T14:26:43;29.30;99.90
23283;DHT22;11810;51.178;3.878;2023-08-21T14:29:09;28.70;99.90
23283;DHT22;11810;51.178;3.878;2023-08-21T14:31:35;28.70;99.90
23283;DHT22;11810;51.178;3.878;2023-08-21T14:34:01;28.40;99.90
23283;DHT22;11810;51.178;3.878;2023-08-21T14:36:26;28.00;99.90
23283;DHT22;11810;51.178;3.878;2023-08-21T14:38:52;27.80;99.90
23283;DHT22;11810;51.178;3.878;2023-08-21T14:41:18;27.70;99.90
23283;DHT22;11810;51.178;3.878;2023-08-21T14:43:44;27.60;99.90
23283;DHT22;11810;51.178;3.878;2023-08-21T14:46:10;27.90;99.90
23283;DHT22;11810;51.178;3.878;2023-08-21T14:48:37;28.30;99.90
23283;DHT22;11810;51.178;3.878;2023-08-21T14:51:04;28.80;99.90
23283;DHT22;11810;51.178;3.878;2023-08-21T14:53:30;29.40;99.90
23283;DHT22;11810;51.178;3.878;2023-08-21T14:55:57;29.60;99.90
23283;DHT22;11810;51.178;3.878;2023-08-21T14:58:23;29.70;99.90
23283;DHT22;11810;51.178;3.878;2023-08-21T15:00:53;29.70;99.90
23283;DHT22;11810;51.178;3.878;2023-08-21T15:03:19;29.90;99.90
23283;DHT22;11810;51.178;3.878;2023-08-21T15:05:47;29.40;99.90
23283;DHT22;11810;51.178;3.878;2023-08-21T15:08:13;29.20;99.90
23283;DHT22;11810;51.178;3.878;2023-08-21T15:10:39;29.60;99.90
23283;DHT22;11810;51.178;3.878;2023-08-21T15:13:05;29.90;99.90
23283;DHT22;11810;51.178;3.878;2023-08-21T15:15:31;30.10;99.90
23283;DHT22;11810;51.178;3.878;2023-08-21T15:17:57;30.30;99.90
23283;DHT22;11810;51.178;3.878;2023-08-21T15:20:23;30.20;99.90
23283;DHT22;11810;51.178;3.878;2023-08-21T15:22:48;30.30;99.90
23283;DHT22;11810;51.178;3.878;2023-08-21T15:25:17;30.40;99.90
23283;DHT22;11810;51.178;3.878;2023-08-21T15:27:43;30.50;99.90
23283;DHT22;11810;51.178;3.878;2023-08-21T15:30:10;30.30;99.90
23283;DHT22;11810;51.178;3.878;2023-08-21T15:32:36;30.40;99.90
23283;DHT22;11810;51.178;3.878;2023-08-21T15:35:02;30.30;99.90
23283;DHT22;11810;51.178;3.878;2023-08-21T15:37:30;30.70;99.90